sensor_id;sensor_type;location;lat;lon;timestamp;P1;durP1;ratioP1;P2;durP2;ratioP2
44664;SDS011;30382;48.802;9.388;2022-09-12T00:02:08;6.90;;;6.20;;
44664;SDS011;30382;48.802;9.388;2022-09-12T00:04:53;6.77;;;6.07;;
44664;SDS011;30382;48.802;9.388;2022-09-12T00:07:37;7.53;;;6.13;;
44664;SDS011;30382;48.802;9.388;2022-09-12T00:10:21;6.73;;;6.03;;
44664;SDS011;30382;48.802;9.388;2022-09-12T00:13:06;6.50;;;5.90;;
44664;SDS011;30382;48.802;9.388;2022-09-12T00:15:50;8.03;;;6.80;;
44664;SDS011;30382;48.802;9.388;2022-09-12T00:18:35;7.27;;;6.47;;
44664;SDS011;30382;48.802;9.388;2022-09-12T00:21:19;6.87;;;6.17;;
44664;SDS011;30382;48.802;9.388;2022-09-12T00:24:04;8.03;;;6.23;;
44664;SDS011;30382;48.802;9.388;2022-09-12T00:26:49;7.00;;;6.40;;
44664;SDS011;30382;48.802;9.388;2022-09-12T00:29:34;6.27;;;5.47;;
44664;SDS011;30382;48.802;9.388;2022-09-12T00:32:18;6.40;;;5.80;;
44664;SDS011;30382;48.802;9.388;2022-09-12T00:35:03;6.40;;;5.77;;
44664;SDS011;30382;48.802;9.388;2022-09-12T00:37:47;6.20;;;5.70;;
44664;SDS011;30382;48.802;9.388;2022-09-12T00:40:32;8.03;;;6.80;;
44664;SDS011;30382;48.802;9.388;2022-09-12T00:49:09;7.27;;;5.70;;
44664;SDS011;30382;48.802;9.388;2022-09-12T00:55:23;7.27;;;6.67;;
44664;SDS011;30382;48.802;9.388;2022-09-12T00:58:04;7.83;;;6.67;;
44664;SDS011;30382;48.802;9.388;2022-09-12T01:00:50;7.40;;;6.57;;
44664;SDS011;30382;48.802;9.388;2022-09-12T01:03:35;7.17;;;6.40;;
44664;SDS011;30382;48.802;9.388;2022-09-12T01:06:20;7.30;;;6.63;;
44664;SDS011;30382;48.802;9.388;2022-09-12T01:09:07;7.63;;;6.07;;
44664;SDS011;30382;48.802;9.388;2022-09-12T01:11:51;8.20;;;6.13;;
44664;SDS011;30382;48.802;9.388;2022-09-12T01:14:36;5.80;;;5.20;;
44664;SDS011;30382;48.802;9.388;2022-09-12T01:17:21;8.50;;;6.47;;
44664;SDS011;30382;48.802;9.388;2022-09-12T01:20:26;6.20;;;5.43;;
44664;SDS011;30382;48.802;9.388;2022-09-12T01:31:58;6.70;;;6.00;;
44664;SDS011;30382;48.802;9.388;2022-09-12T01:34:53;10.53;;;6.10;;
44664;SDS011;30382;48.802;9.388;2022-09-12T01:43:33;6.47;;;5.97;;
44664;SDS011;30382;48.802;9.388;2022-09-12T01:46:30;5.83;;;5.23;;
44664;SDS011;30382;48.802;9.388;2022-09-12T01:49:17;8.97;;;6.53;;
44664;SDS011;30382;48.802;9.388;2022-09-12T01:55:06;6.63;;;6.00;;
44664;SDS011;30382;48.802;9.388;2022-09-12T01:58:02;6.40;;;5.90;;
44664;SDS011;30382;48.802;9.388;2022-09-12T02:01:06;7.13;;;5.60;;
44664;SDS011;30382;48.802;9.388;2022-09-12T02:03:54;6.60;;;5.77;;
44664;SDS011;30382;48.802;9.388;2022-09-12T02:06:43;7.47;;;6.20;;
44664;SDS011;30382;48.802;9.388;2022-09-12T02:12:15;7.17;;;6.47;;
44664;SDS011;30382;48.802;9.388;2022-09-12T02:15:03;7.43;;;6.60;;
44664;SDS011;30382;48.802;9.388;2022-09-12T02:17:48;9.30;;;7.03;;
44664;SDS011;30382;48.802;9.388;2022-09-12T02:20:33;7.00;;;6.30;;
44664;SDS011;30382;48.802;9.388;2022-09-12T02:23:20;6.77;;;6.17;;
44664;SDS011;30382;48.802;9.388;2022-09-12T02:26:07;6.53;;;5.93;;
44664;SDS011;30382;48.802;9.388;2022-09-12T02:28:54;6.53;;;5.83;;
44664;SDS011;30382;48.802;9.388;2022-09-12T02:31:45;7.87;;;6.10;;
44664;SDS011;30382;48.802;9.388;2022-09-12T02:37:25;6.20;;;5.70;;
44664;SDS011;30382;48.802;9.388;2022-09-12T02:40:16;7.17;;;6.50;;
44664;SDS011;30382;48.802;9.388;2022-09-12T02:43:00;5.83;;;5.37;;
44664;SDS011;30382;48.802;9.388;2022-09-12T02:45:46;7.47;;;6.77;;
44664;SDS011;30382;48.802;9.388;2022-09-12T02:48:30;7.50;;;6.80;;
44664;SDS011;30382;48.802;9.388;2022-09-12T02:51:17;6.87;;;6.27;;
44664;SDS011;30382;48.802;9.388;2022-09-12T02:54:01;8.50;;;6.10;;
44664;SDS011;30382;48.802;9.388;2022-09-12T02:56:46;8.10;;;7.30;;
44664;SDS011;30382;48.802;9.388;2022-09-12T02:59:31;7.77;;;7.07;;
44664;SDS011;30382;48.802;9.388;2022-09-12T03:02:30;8.17;;;5.93;;
44664;SDS011;30382;48.802;9.388;2022-09-12T03:05:23;8.57;;;6.57;;
44664;SDS011;30382;48.802;9.388;2022-09-12T03:08:19;6.60;;;6.00;;
44664;SDS011;30382;48.802;9.388;2022-09-12T03:11:14;6.80;;;6.10;;
44664;SDS011;30382;48.802;9.388;2022-09-12T03:14:16;8.70;;;7.37;;
44664;SDS011;30382;48.802;9.388;2022-09-12T03:20:02;7.40;;;6.70;;
44664;SDS011;30382;48.802;9.388;2022-09-12T03:22:55;8.17;;;7.03;;
44664;SDS011;30382;48.802;9.388;2022-09-12T03:25:47;6.93;;;6.23;;
44664;SDS011;30382;48.802;9.388;2022-09-12T03:28:33;6.80;;;6.10;;
44664;SDS011;30382;48.802;9.388;2022-09-12T03:31:18;6.70;;;6.10;;
44664;SDS011;30382;48.802;9.388;2022-09-12T03:34:02;7.00;;;6.40;;
44664;SDS011;30382;48.802;9.388;2022-09-12T03:36:47;7.57;;;6.77;;
44664;SDS011;30382;48.802;9.388;2022-09-12T03:39:31;7.60;;;6.47;;
44664;SDS011;30382;48.802;9.388;2022-09-12T03:42:15;7.13;;;6.53;;
44664;SDS011;30382;48.802;9.388;2022-09-12T03:45:00;7.60;;;6.47;;
44664;SDS011;30382;48.802;9.388;2022-09-12T03:47:44;7.37;;;6.67;;
44664;SDS011;30382;48.802;9.388;2022-09-12T03:50:28;6.73;;;6.03;;
44664;SDS011;30382;48.802;9.388;2022-09-12T03:53:12;6.90;;;5.80;;
44664;SDS011;30382;48.802;9.388;2022-09-12T03:55:57;9.10;;;7.60;;
44664;SDS011;30382;48.802;9.388;2022-09-12T03:58:41;6.80;;;6.20;;
44664;SDS011;30382;48.802;9.388;2022-09-12T04:01:25;6.73;;;6.10;;
44664;SDS011;30382;48.802;9.388;2022-09-12T04:04:09;9.40;;;6.43;;
44664;SDS011;30382;48.802;9.388;2022-09-12T04:06:54;6.60;;;6.00;;
44664;SDS011;30382;48.802;9.388;2022-09-12T04:09:38;7.30;;;6.60;;
44664;SDS011;30382;48.802;9.388;2022-09-12T04:12:22;8.77;;;6.53;;
44664;SDS011;30382;48.802;9.388;2022-09-12T04:15:07;8.37;;;6.00;;
44664;SDS011;30382;48.802;9.388;2022-09-12T04:17:51;6.23;;;5.63;;
44664;SDS011;30382;48.802;9.388;2022-09-12T04:20:36;7.47;;;6.20;;
44664;SDS011;30382;48.802;9.388;2022-09-12T04:23:20;6.97;;;6.30;;
44664;SDS011;30382;48.802;9.388;2022-09-12T04:26:05;7.00;;;6.40;;
44664;SDS011;30382;48.802;9.388;2022-09-12T04:28:52;7.63;;;6.77;;
44664;SDS011;30382;48.802;9.388;2022-09-12T04:31:37;6.50;;;5.90;;
44664;SDS011;30382;48.802;9.388;2022-09-12T04:34:21;9.80;;;6.53;;
44664;SDS011;30382;48.802;9.388;2022-09-12T04:37:05;6.90;;;6.20;;
44664;SDS011;30382;48.802;9.388;2022-09-12T04:39:49;8.10;;;6.27;;
44664;SDS011;30382;48.802;9.388;2022-09-12T04:42:34;6.70;;;6.07;;
44664;SDS011;30382;48.802;9.388;2022-09-12T04:45:19;7.33;;;6.40;;
44664;SDS011;30382;48.802;9.388;2022-09-12T04:48:03;8.83;;;6.73;;
44664;SDS011;30382;48.802;9.388;2022-09-12T04:50:47;7.40;;;6.00;;
44664;SDS011;30382;48.802;9.388;2022-09-12T04:53:32;6.70;;;6.10;;
44664;SDS011;30382;48.802;9.388;2022-09-12T04:56:16;9.90;;;7.97;;
44664;SDS011;30382;48.802;9.388;2022-09-12T04:59:01;11.80;;;6.80;;
44664;SDS011;30382;48.802;9.388;2022-09-12T05:01:45;7.20;;;6.47;;
44664;SDS011;30382;48.802;9.388;2022-09-12T05:04:29;9.60;;;7.57;;
44664;SDS011;30382;48.802;9.388;2022-09-12T05:07:14;9.17;;;7.20;;
44664;SDS011;30382;48.802;9.388;2022-09-12T05:09:58;7.93;;;7.20;;
44664;SDS011;30382;48.802;9.388;2022-09-12T05:12:43;8.10;;;6.90;;
44664;SDS011;30382;48.802;9.388;2022-09-12T05:15:27;7.80;;;7.00;;
44664;SDS011;30382;48.802;9.388;2022-09-12T05:18:12;13.23;;;6.63;;
44664;SDS011;30382;48.802;9.388;2022-09-12T05:20:57;8.57;;;6.73;;
44664;SDS011;30382;48.802;9.388;2022-09-12T05:23:42;8.23;;;6.00;;
44664;SDS011;30382;48.802;9.388;2022-09-12T05:26:26;8.20;;;6.73;;
44664;SDS011;30382;48.802;9.388;2022-09-12T05:29:10;8.63;;;7.73;;
44664;SDS011;30382;48.802;9.388;2022-09-12T05:31:56;7.67;;;6.53;;
44664;SDS011;30382;48.802;9.388;2022-09-12T05:34:40;7.50;;;6.70;;
44664;SDS011;30382;48.802;9.388;2022-09-12T05:37:24;8.20;;;7.40;;
44664;SDS011;30382;48.802;9.388;2022-09-12T05:40:09;8.87;;;6.97;;
44664;SDS011;30382;48.802;9.388;2022-09-12T05:42:53;8.50;;;7.67;;
44664;SDS011;30382;48.802;9.388;2022-09-12T05:45:37;9.43;;;7.50;;
44664;SDS011;30382;48.802;9.388;2022-09-12T05:48:22;10.07;;;7.07;;
44664;SDS011;30382;48.802;9.388;2022-09-12T05:51:09;10.30;;;7.80;;
44664;SDS011;30382;48.802;9.388;2022-09-12T05:53:57;8.63;;;7.60;;
44664;SDS011;30382;48.802;9.388;2022-09-12T05:56:42;9.57;;;7.67;;
44664;SDS011;30382;48.802;9.388;2022-09-12T05:59:26;7.60;;;6.30;;
44664;SDS011;30382;48.802;9.388;2022-09-12T06:02:11;8.00;;;7.20;;
44664;SDS011;30382;48.802;9.388;2022-09-12T06:04:55;8.20;;;7.50;;
44664;SDS011;30382;48.802;9.388;2022-09-12T06:07:40;9.50;;;7.00;;
44664;SDS011;30382;48.802;9.388;2022-09-12T06:10:24;8.10;;;7.30;;
44664;SDS011;30382;48.802;9.388;2022-09-12T06:13:09;9.33;;;7.10;;
44664;SDS011;30382;48.802;9.388;2022-09-12T06:15:54;7.80;;;6.97;;
44664;SDS011;30382;48.802;9.388;2022-09-12T06:18:38;8.60;;;7.70;;
44664;SDS011;30382;48.802;9.388;2022-09-12T06:21:24;8.90;;;7.20;;
44664;SDS011;30382;48.802;9.388;2022-09-12T06:24:09;8.03;;;7.07;;
44664;SDS011;30382;48.802;9.388;2022-09-12T06:26:54;10.60;;;7.37;;
44664;SDS011;30382;48.802;9.388;2022-09-12T06:29:38;10.60;;;7.80;;
44664;SDS011;30382;48.802;9.388;2022-09-12T06:32:23;10.13;;;8.60;;
44664;SDS011;30382;48.802;9.388;2022-09-12T06:35:07;8.33;;;7.50;;
44664;SDS011;30382;48.802;9.388;2022-09-12T06:37:51;9.80;;;8.23;;
44664;SDS011;30382;48.802;9.388;2022-09-12T06:40:42;9.73;;;8.73;;
44664;SDS011;30382;48.802;9.388;2022-09-12T06:43:27;8.77;;;7.83;;
44664;SDS011;30382;48.802;9.388;2022-09-12T06:46:12;10.73;;;7.60;;
44664;SDS011;30382;48.802;9.388;2022-09-12T06:48:56;13.80;;;9.70;;
44664;SDS011;30382;48.802;9.388;2022-09-12T06:51:42;8.50;;;7.63;;
44664;SDS011;30382;48.802;9.388;2022-09-12T06:54:26;9.20;;;8.30;;
44664;SDS011;30382;48.802;9.388;2022-09-12T06:57:10;9.50;;;8.60;;
44664;SDS011;30382;48.802;9.388;2022-09-12T06:59:54;10.10;;;9.03;;
44664;SDS011;30382;48.802;9.388;2022-09-12T07:02:39;9.00;;;8.20;;
44664;SDS011;30382;48.802;9.388;2022-09-12T07:05:23;10.03;;;8.03;;
44664;SDS011;30382;48.802;9.388;2022-09-12T07:08:07;9.43;;;8.50;;
44664;SDS011;30382;48.802;9.388;2022-09-12T07:10:51;8.63;;;7.57;;
44664;SDS011;30382;48.802;9.388;2022-09-12T07:13:36;9.10;;;8.20;;
44664;SDS011;30382;48.802;9.388;2022-09-12T07:16:21;9.20;;;8.30;;
44664;SDS011;30382;48.802;9.388;2022-09-12T07:19:06;8.67;;;7.87;;
44664;SDS011;30382;48.802;9.388;2022-09-12T07:21:50;8.60;;;7.80;;
44664;SDS011;30382;48.802;9.388;2022-09-12T07:24:35;9.47;;;8.40;;
44664;SDS011;30382;48.802;9.388;2022-09-12T07:27:20;9.27;;;8.30;;
44664;SDS011;30382;48.802;9.388;2022-09-12T07:30:05;9.87;;;7.77;;
44664;SDS011;30382;48.802;9.388;2022-09-12T07:32:54;9.00;;;8.10;;
44664;SDS011;30382;48.802;9.388;2022-09-12T07:35:38;8.40;;;7.30;;
44664;SDS011;30382;48.802;9.388;2022-09-12T07:38:22;8.90;;;8.10;;
44664;SDS011;30382;48.802;9.388;2022-09-12T07:41:11;9.60;;;8.30;;
44664;SDS011;30382;48.802;9.388;2022-09-12T07:43:56;8.97;;;8.07;;
44664;SDS011;30382;48.802;9.388;2022-09-12T07:46:41;13.23;;;9.23;;
44664;SDS011;30382;48.802;9.388;2022-09-12T07:49:25;8.80;;;8.00;;
44664;SDS011;30382;48.802;9.388;2022-09-12T07:52:09;8.90;;;8.10;;
44664;SDS011;30382;48.802;9.388;2022-09-12T07:54:54;8.47;;;7.60;;
44664;SDS011;30382;48.802;9.388;2022-09-12T07:57:38;10.23;;;8.07;;
44664;SDS011;30382;48.802;9.388;2022-09-12T08:00:22;7.50;;;6.57;;
44664;SDS011;30382;48.802;9.388;2022-09-12T08:03:08;8.17;;;7.47;;
44664;SDS011;30382;48.802;9.388;2022-09-12T08:05:52;9.00;;;7.30;;
44664;SDS011;30382;48.802;9.388;2022-09-12T08:08:36;7.93;;;7.13;;
44664;SDS011;30382;48.802;9.388;2022-09-12T08:11:22;8.90;;;8.00;;
44664;SDS011;30382;48.802;9.388;2022-09-12T08:14:06;8.83;;;7.47;;
44664;SDS011;30382;48.802;9.388;2022-09-12T08:16:50;8.30;;;7.60;;
44664;SDS011;30382;48.802;9.388;2022-09-12T08:19:35;9.20;;;8.30;;
44664;SDS011;30382;48.802;9.388;2022-09-12T08:22:19;14.73;;;7.93;;
44664;SDS011;30382;48.802;9.388;2022-09-12T08:25:05;7.67;;;7.07;;
44664;SDS011;30382;48.802;9.388;2022-09-12T08:27:49;7.13;;;6.43;;
44664;SDS011;30382;48.802;9.388;2022-09-12T08:30:34;8.13;;;7.53;;
44664;SDS011;30382;48.802;9.388;2022-09-12T08:33:18;9.60;;;6.53;;
44664;SDS011;30382;48.802;9.388;2022-09-12T08:38:48;5.70;;;5.10;;
44664;SDS011;30382;48.802;9.388;2022-09-12T08:41:40;6.70;;;6.10;;
44664;SDS011;30382;48.802;9.388;2022-09-12T08:47:15;5.87;;;5.10;;
44664;SDS011;30382;48.802;9.388;2022-09-12T08:52:52;5.83;;;5.27;;
44664;SDS011;30382;48.802;9.388;2022-09-12T08:55:42;5.90;;;5.43;;
44664;SDS011;30382;48.802;9.388;2022-09-12T08:58:27;5.30;;;4.90;;
44664;SDS011;30382;48.802;9.388;2022-09-12T09:01:29;5.70;;;5.20;;
44664;SDS011;30382;48.802;9.388;2022-09-12T09:04:27;5.20;;;4.70;;
44664;SDS011;30382;48.802;9.388;2022-09-12T09:07:25;5.00;;;4.70;;
44664;SDS011;30382;48.802;9.388;2022-09-12T09:10:17;5.80;;;4.80;;
44664;SDS011;30382;48.802;9.388;2022-09-12T09:13:07;4.83;;;4.43;;
44664;SDS011;30382;48.802;9.388;2022-09-12T09:16:00;4.50;;;4.20;;
44664;SDS011;30382;48.802;9.388;2022-09-12T09:18:49;3.87;;;3.53;;
44664;SDS011;30382;48.802;9.388;2022-09-12T09:21:41;5.17;;;4.80;;
44664;SDS011;30382;48.802;9.388;2022-09-12T09:24:30;5.03;;;4.57;;
44664;SDS011;30382;48.802;9.388;2022-09-12T09:30:12;4.80;;;4.13;;
44664;SDS011;30382;48.802;9.388;2022-09-12T09:44:30;3.77;;;3.47;;
44664;SDS011;30382;48.802;9.388;2022-09-12T09:47:15;4.27;;;3.97;;
44664;SDS011;30382;48.802;9.388;2022-09-12T09:50:00;3.87;;;3.37;;
44664;SDS011;30382;48.802;9.388;2022-09-12T09:52:45;4.17;;;3.87;;
44664;SDS011;30382;48.802;9.388;2022-09-12T09:55:32;4.03;;;3.73;;
44664;SDS011;30382;48.802;9.388;2022-09-12T09:58:30;4.00;;;3.70;;
44664;SDS011;30382;48.802;9.388;2022-09-12T10:01:16;3.93;;;3.63;;
44664;SDS011;30382;48.802;9.388;2022-09-12T10:04:00;3.70;;;3.47;;
44664;SDS011;30382;48.802;9.388;2022-09-12T10:06:45;4.33;;;4.00;;
44664;SDS011;30382;48.802;9.388;2022-09-12T10:09:30;3.87;;;3.23;;
44664;SDS011;30382;48.802;9.388;2022-09-12T10:12:25;3.47;;;3.17;;
44664;SDS011;30382;48.802;9.388;2022-09-12T10:15:20;3.53;;;3.27;;
44664;SDS011;30382;48.802;9.388;2022-09-12T10:18:05;3.47;;;2.93;;
44664;SDS011;30382;48.802;9.388;2022-09-12T10:20:49;3.30;;;3.00;;
44664;SDS011;30382;48.802;9.388;2022-09-12T10:23:34;2.97;;;2.77;;
44664;SDS011;30382;48.802;9.388;2022-09-12T10:26:20;3.40;;;3.20;;
44664;SDS011;30382;48.802;9.388;2022-09-12T10:29:09;3.47;;;3.23;;
44664;SDS011;30382;48.802;9.388;2022-09-12T10:31:56;3.20;;;3.00;;
44664;SDS011;30382;48.802;9.388;2022-09-12T10:34:44;3.60;;;3.40;;
44664;SDS011;30382;48.802;9.388;2022-09-12T10:37:30;2.97;;;2.70;;
44664;SDS011;30382;48.802;9.388;2022-09-12T10:40:22;2.97;;;2.73;;
44664;SDS011;30382;48.802;9.388;2022-09-12T10:43:28;2.10;;;2.00;;
44664;SDS011;30382;48.802;9.388;2022-09-12T10:51:57;1.80;;;1.70;;
44664;SDS011;30382;48.802;9.388;2022-09-12T10:54:58;2.97;;;2.30;;
44664;SDS011;30382;48.802;9.388;2022-09-12T11:00:36;2.60;;;2.33;;
44664;SDS011;30382;48.802;9.388;2022-09-12T11:03:45;2.27;;;2.17;;
44664;SDS011;30382;48.802;9.388;2022-09-12T11:06:38;2.73;;;2.57;;
44664;SDS011;30382;48.802;9.388;2022-09-12T11:18:25;3.00;;;2.33;;
44664;SDS011;30382;48.802;9.388;2022-09-12T11:21:18;2.17;;;1.80;;
44664;SDS011;30382;48.802;9.388;2022-09-12T11:24:15;2.00;;;1.90;;
44664;SDS011;30382;48.802;9.388;2022-09-12T11:27:20;2.57;;;1.63;;
44664;SDS011;30382;48.802;9.388;2022-09-12T11:30:13;1.80;;;1.70;;
44664;SDS011;30382;48.802;9.388;2022-09-12T11:36:01;1.87;;;1.77;;
44664;SDS011;30382;48.802;9.388;2022-09-12T11:41:36;1.87;;;1.77;;
44664;SDS011;30382;48.802;9.388;2022-09-12T11:44:35;1.50;;;1.50;;
44664;SDS011;30382;48.802;9.388;2022-09-12T11:47:19;2.07;;;1.87;;
44664;SDS011;30382;48.802;9.388;2022-09-12T11:50:04;1.73;;;1.60;;
44664;SDS011;30382;48.802;9.388;2022-09-12T11:53:03;1.73;;;1.73;;
44664;SDS011;30382;48.802;9.388;2022-09-12T11:55:51;1.67;;;1.67;;
44664;SDS011;30382;48.802;9.388;2022-09-12T11:58:36;1.83;;;1.73;;
44664;SDS011;30382;48.802;9.388;2022-09-12T12:01:25;2.25;;;1.60;;
44664;SDS011;30382;48.802;9.388;2022-09-12T12:04:10;1.70;;;1.70;;
44664;SDS011;30382;48.802;9.388;2022-09-12T12:07:02;1.50;;;1.40;;
44664;SDS011;30382;48.802;9.388;2022-09-12T12:09:48;1.20;;;1.20;;
44664;SDS011;30382;48.802;9.388;2022-09-12T12:12:33;1.58;;;1.50;;
44664;SDS011;30382;48.802;9.388;2022-09-12T12:15:17;1.33;;;1.33;;
44664;SDS011;30382;48.802;9.388;2022-09-12T12:18:06;1.40;;;1.30;;
44664;SDS011;30382;48.802;9.388;2022-09-12T12:20:52;1.70;;;1.50;;
44664;SDS011;30382;48.802;9.388;2022-09-12T12:23:37;1.25;;;1.25;;
44664;SDS011;30382;48.802;9.388;2022-09-12T12:26:39;1.83;;;1.70;;
44664;SDS011;30382;48.802;9.388;2022-09-12T12:35:00;1.90;;;1.70;;
44664;SDS011;30382;48.802;9.388;2022-09-12T12:37:49;1.30;;;1.30;;
44664;SDS011;30382;48.802;9.388;2022-09-12T12:40:35;1.50;;;1.50;;
44664;SDS011;30382;48.802;9.388;2022-09-12T12:43:29;1.67;;;1.58;;
44664;SDS011;30382;48.802;9.388;2022-09-12T12:46:18;3.15;;;2.10;;
44664;SDS011;30382;48.802;9.388;2022-09-12T12:49:37;2.00;;;1.42;;
44664;SDS011;30382;48.802;9.388;2022-09-12T12:52:15;1.30;;;1.30;;
44664;SDS011;30382;48.802;9.388;2022-09-12T12:55:00;3.22;;;1.60;;
44664;SDS011;30382;48.802;9.388;2022-09-12T12:57:47;1.20;;;1.20;;
44664;SDS011;30382;48.802;9.388;2022-09-12T13:00:32;2.55;;;1.92;;
44664;SDS011;30382;48.802;9.388;2022-09-12T13:03:27;1.70;;;1.60;;
44664;SDS011;30382;48.802;9.388;2022-09-12T13:09:18;1.75;;;1.65;;
44664;SDS011;30382;48.802;9.388;2022-09-12T13:12:05;2.95;;;1.73;;
44664;SDS011;30382;48.802;9.388;2022-09-12T13:14:53;1.90;;;1.80;;
44664;SDS011;30382;48.802;9.388;2022-09-12T13:17:41;1.20;;;1.20;;
44664;SDS011;30382;48.802;9.388;2022-09-12T13:20:29;1.60;;;1.50;;
44664;SDS011;30382;48.802;9.388;2022-09-12T13:23:31;1.40;;;1.38;;
44664;SDS011;30382;48.802;9.388;2022-09-12T13:26:22;1.30;;;1.30;;
44664;SDS011;30382;48.802;9.388;2022-09-12T13:29:21;1.77;;;1.67;;
44664;SDS011;30382;48.802;9.388;2022-09-12T13:32:07;1.50;;;1.50;;
44664;SDS011;30382;48.802;9.388;2022-09-12T13:35:06;1.65;;;1.55;;
44664;SDS011;30382;48.802;9.388;2022-09-12T13:37:54;1.80;;;1.70;;
44664;SDS011;30382;48.802;9.388;2022-09-12T13:49:15;3.75;;;1.70;;
44664;SDS011;30382;48.802;9.388;2022-09-12T13:52:05;1.25;;;1.25;;
44664;SDS011;30382;48.802;9.388;2022-09-12T13:57:35;1.60;;;1.55;;
44664;SDS011;30382;48.802;9.388;2022-09-12T14:00:20;1.92;;;1.83;;
44664;SDS011;30382;48.802;9.388;2022-09-12T14:03:13;2.75;;;1.70;;
44664;SDS011;30382;48.802;9.388;2022-09-12T14:09:14;1.80;;;1.70;;
44664;SDS011;30382;48.802;9.388;2022-09-12T14:11:59;2.45;;;1.90;;
44664;SDS011;30382;48.802;9.388;2022-09-12T14:14:45;1.55;;;1.55;;
44664;SDS011;30382;48.802;9.388;2022-09-12T14:17:32;1.70;;;1.60;;
44664;SDS011;30382;48.802;9.388;2022-09-12T14:20:16;1.85;;;1.75;;
44664;SDS011;30382;48.802;9.388;2022-09-12T14:25:46;1.40;;;1.40;;
44664;SDS011;30382;48.802;9.388;2022-09-12T14:28:31;1.70;;;1.60;;
44664;SDS011;30382;48.802;9.388;2022-09-12T14:36:52;1.60;;;1.60;;
44664;SDS011;30382;48.802;9.388;2022-09-12T14:39:40;1.35;;;1.35;;
44664;SDS011;30382;48.802;9.388;2022-09-12T14:42:26;1.63;;;1.52;;
44664;SDS011;30382;48.802;9.388;2022-09-12T14:45:14;1.90;;;1.80;;
44664;SDS011;30382;48.802;9.388;2022-09-12T14:47:59;2.10;;;2.00;;
44664;SDS011;30382;48.802;9.388;2022-09-12T14:50:43;1.90;;;1.70;;
44664;SDS011;30382;48.802;9.388;2022-09-12T14:56:16;1.80;;;1.70;;
44664;SDS011;30382;48.802;9.388;2022-09-12T15:05:13;2.20;;;2.10;;
44664;SDS011;30382;48.802;9.388;2022-09-12T15:07:59;1.73;;;1.63;;
44664;SDS011;30382;48.802;9.388;2022-09-12T15:10:43;2.20;;;2.00;;
44664;SDS011;30382;48.802;9.388;2022-09-12T15:13:28;2.50;;;2.30;;
44664;SDS011;30382;48.802;9.388;2022-09-12T15:16:13;2.20;;;1.73;;
44664;SDS011;30382;48.802;9.388;2022-09-12T15:18:58;3.20;;;2.77;;
44664;SDS011;30382;48.802;9.388;2022-09-12T15:21:42;1.70;;;1.60;;
44664;SDS011;30382;48.802;9.388;2022-09-12T15:24:27;2.13;;;1.90;;
44664;SDS011;30382;48.802;9.388;2022-09-12T15:27:11;2.17;;;1.67;;
44664;SDS011;30382;48.802;9.388;2022-09-12T15:29:55;2.20;;;1.90;;
44664;SDS011;30382;48.802;9.388;2022-09-12T15:32:41;1.80;;;1.70;;
44664;SDS011;30382;48.802;9.388;2022-09-12T15:35:26;2.27;;;2.07;;
44664;SDS011;30382;48.802;9.388;2022-09-12T15:38:11;1.57;;;1.47;;
44664;SDS011;30382;48.802;9.388;2022-09-12T15:40:55;2.40;;;2.20;;
44664;SDS011;30382;48.802;9.388;2022-09-12T15:43:40;2.30;;;2.07;;
44664;SDS011;30382;48.802;9.388;2022-09-12T15:46:25;2.97;;;1.77;;
44664;SDS011;30382;48.802;9.388;2022-09-12T15:49:09;1.90;;;1.80;;
44664;SDS011;30382;48.802;9.388;2022-09-12T15:51:53;2.80;;;2.03;;
44664;SDS011;30382;48.802;9.388;2022-09-12T15:54:38;2.60;;;2.20;;
44664;SDS011;30382;48.802;9.388;2022-09-12T15:57:22;3.00;;;2.63;;
44664;SDS011;30382;48.802;9.388;2022-09-12T16:00:07;1.90;;;1.80;;
44664;SDS011;30382;48.802;9.388;2022-09-12T16:02:55;2.07;;;1.63;;
44664;SDS011;30382;48.802;9.388;2022-09-12T16:05:40;1.57;;;1.37;;
44664;SDS011;30382;48.802;9.388;2022-09-12T16:08:30;1.67;;;1.57;;
44664;SDS011;30382;48.802;9.388;2022-09-12T16:11:20;2.67;;;2.47;;
44664;SDS011;30382;48.802;9.388;2022-09-12T16:14:10;2.63;;;2.43;;
44664;SDS011;30382;48.802;9.388;2022-09-12T16:16:56;2.30;;;1.90;;
44664;SDS011;30382;48.802;9.388;2022-09-12T16:19:40;2.50;;;2.20;;
44664;SDS011;30382;48.802;9.388;2022-09-12T16:22:24;2.60;;;2.10;;
44664;SDS011;30382;48.802;9.388;2022-09-12T16:25:09;2.10;;;2.00;;
44664;SDS011;30382;48.802;9.388;2022-09-12T16:27:53;3.17;;;2.97;;
44664;SDS011;30382;48.802;9.388;2022-09-12T16:30:37;2.30;;;2.20;;
44664;SDS011;30382;48.802;9.388;2022-09-12T16:33:22;2.00;;;1.90;;
44664;SDS011;30382;48.802;9.388;2022-09-12T16:36:10;2.73;;;1.70;;
44664;SDS011;30382;48.802;9.388;2022-09-12T16:38:55;2.50;;;2.30;;
44664;SDS011;30382;48.802;9.388;2022-09-12T16:41:39;3.40;;;2.40;;
44664;SDS011;30382;48.802;9.388;2022-09-12T16:44:25;2.80;;;2.20;;
44664;SDS011;30382;48.802;9.388;2022-09-12T16:47:10;2.17;;;1.90;;
44664;SDS011;30382;48.802;9.388;2022-09-12T16:49:54;2.57;;;2.33;;
44664;SDS011;30382;48.802;9.388;2022-09-12T16:52:38;2.67;;;2.53;;
44664;SDS011;30382;48.802;9.388;2022-09-12T16:55:22;2.37;;;2.17;;
44664;SDS011;30382;48.802;9.388;2022-09-12T16:58:07;3.63;;;3.00;;
44664;SDS011;30382;48.802;9.388;2022-09-12T17:01:00;2.93;;;2.37;;
44664;SDS011;30382;48.802;9.388;2022-09-12T17:03:44;2.03;;;1.93;;
44664;SDS011;30382;48.802;9.388;2022-09-12T17:06:29;2.47;;;2.23;;
44664;SDS011;30382;48.802;9.388;2022-09-12T17:09:13;2.33;;;2.13;;
44664;SDS011;30382;48.802;9.388;2022-09-12T17:12:01;2.47;;;2.27;;
44664;SDS011;30382;48.802;9.388;2022-09-12T17:14:45;3.57;;;3.27;;
44664;SDS011;30382;48.802;9.388;2022-09-12T17:17:30;3.47;;;2.60;;
44664;SDS011;30382;48.802;9.388;2022-09-12T17:20:14;4.50;;;3.07;;
44664;SDS011;30382;48.802;9.388;2022-09-12T17:22:59;4.13;;;2.50;;
44664;SDS011;30382;48.802;9.388;2022-09-12T17:25:47;3.30;;;2.90;;
44664;SDS011;30382;48.802;9.388;2022-09-12T17:28:32;2.70;;;2.50;;
44664;SDS011;30382;48.802;9.388;2022-09-12T17:31:17;3.43;;;3.13;;
44664;SDS011;30382;48.802;9.388;2022-09-12T17:34:02;2.80;;;2.60;;
44664;SDS011;30382;48.802;9.388;2022-09-12T17:36:46;3.00;;;2.70;;
44664;SDS011;30382;48.802;9.388;2022-09-12T17:39:31;3.10;;;2.87;;
44664;SDS011;30382;48.802;9.388;2022-09-12T17:42:16;3.40;;;3.10;;
44664;SDS011;30382;48.802;9.388;2022-09-12T17:45:00;3.47;;;3.03;;
44664;SDS011;30382;48.802;9.388;2022-09-12T17:47:44;2.87;;;2.67;;
44664;SDS011;30382;48.802;9.388;2022-09-12T17:50:28;3.63;;;3.03;;
44664;SDS011;30382;48.802;9.388;2022-09-12T17:53:13;4.10;;;3.10;;
44664;SDS011;30382;48.802;9.388;2022-09-12T17:55:59;5.80;;;4.40;;
44664;SDS011;30382;48.802;9.388;2022-09-12T17:58:44;3.97;;;3.63;;
44664;SDS011;30382;48.802;9.388;2022-09-12T18:01:28;5.50;;;3.80;;
44664;SDS011;30382;48.802;9.388;2022-09-12T18:04:32;3.30;;;2.97;;
44664;SDS011;30382;48.802;9.388;2022-09-12T18:07:16;3.50;;;2.87;;
44664;SDS011;30382;48.802;9.388;2022-09-12T18:10:02;3.50;;;3.20;;
44664;SDS011;30382;48.802;9.388;2022-09-12T18:12:46;4.17;;;3.87;;
44664;SDS011;30382;48.802;9.388;2022-09-12T18:15:34;5.00;;;3.60;;
44664;SDS011;30382;48.802;9.388;2022-09-12T18:18:18;4.63;;;3.47;;
44664;SDS011;30382;48.802;9.388;2022-09-12T18:21:03;4.73;;;3.70;;
44664;SDS011;30382;48.802;9.388;2022-09-12T18:23:48;3.53;;;3.17;;
44664;SDS011;30382;48.802;9.388;2022-09-12T18:26:32;3.00;;;2.50;;
44664;SDS011;30382;48.802;9.388;2022-09-12T18:29:17;3.40;;;3.10;;
44664;SDS011;30382;48.802;9.388;2022-09-12T18:32:02;4.93;;;3.30;;
44664;SDS011;30382;48.802;9.388;2022-09-12T18:34:47;3.50;;;3.20;;
44664;SDS011;30382;48.802;9.388;2022-09-12T18:37:32;9.43;;;3.57;;
44664;SDS011;30382;48.802;9.388;2022-09-12T18:40:16;8.33;;;3.77;;
44664;SDS011;30382;48.802;9.388;2022-09-12T18:43:01;3.27;;;3.00;;
44664;SDS011;30382;48.802;9.388;2022-09-12T18:45:45;5.90;;;3.20;;
44664;SDS011;30382;48.802;9.388;2022-09-12T18:48:31;8.63;;;5.40;;